Time;durP1;ratioP1;P1;durP2;ratioP2;P2;SDS_P1;SDS_P2;PMS_P1;PMS_P2;Temp;Humidity;BMP_temperature;BMP_pressure;BME280_temperature;BME280_humidity;BME280_pressure;Samples;Min_cycle;Max_cycle;Signal;HPM_P1;HPM_P2
2021/09/09 00:01:22;;;;;;;14.52;13.02;;;15.80;99.90;;;;;;4903818;29;20027;-76
2021/09/09 00:03:48;;;;;;;17.02;14.27;;;15.80;99.90;;;;;;4914654;29;20393;-77
2021/09/09 00:06:14;;;;;;;15.90;14.15;;;15.80;99.90;;;;;;4908861;29;20446;-74
2021/09/09 00:08:40;;;;;;;15.93;14.07;;;15.70;99.90;;;;;;4907175;29;20062;-75
2021/09/09 00:11:06;;;;;;;15.32;13.38;;;15.70;99.90;;;;;;4915928;29;20385;-84
2021/09/09 00:13:32;;;;;;;15.07;13.27;;;15.70;99.90;;;;;;4916104;29;20032;-77
2021/09/09 00:15:57;;;;;;;17.52;14.50;;;15.80;99.90;;;;;;4905591;29;20021;-80
2021/09/09 00:18:23;;;;;;;15.73;14.13;;;15.70;99.90;;;;;;4905532;29;20029;-78
2021/09/09 00:20:49;;;;;;;15.05;13.43;;;15.70;99.90;;;;;;4895783;29;20530;-79
2021/09/09 00:23:14;;;;;;;15.52;13.93;;;15.70;99.90;;;;;;4894981;29;20025;-76
2021/09/09 00:25:40;;;;;;;16.90;13.82;;;15.70;99.90;;;;;;4897495;29;20107;-76
2021/09/09 00:28:05;;;;;;;16.38;14.38;;;15.60;99.90;;;;;;4896737;29;20052;-76
2021/09/09 00:30:31;;;;;;;17.02;14.15;;;15.60;99.90;;;;;;4896514;29;20117;-80
2021/09/09 00:32:56;;;;;;;17.08;13.60;;;15.60;99.90;;;;;;4895508;29;20020;-78
2021/09/09 00:35:22;;;;;;;16.88;14.65;;;15.60;99.90;;;;;;4895737;29;20441;-76
2021/09/09 00:37:48;;;;;;;16.63;14.88;;;15.50;99.90;;;;;;4895099;29;20561;-78
2021/09/09 00:40:13;;;;;;;16.83;13.63;;;15.50;99.90;;;;;;4895484;29;20123;-80
2021/09/09 00:42:40;;;;;;;17.17;15.38;;;15.50;99.90;;;;;;4897020;29;20112;-76
2021/09/09 00:45:06;;;;;;;16.00;14.32;;;15.40;99.90;;;;;;4894927;29;20474;-76
2021/09/09 00:47:32;;;;;;;16.88;15.07;;;15.40;99.90;;;;;;4895555;29;20035;-77
2021/09/09 00:49:57;;;;;;;17.83;14.77;;;15.40;99.90;;;;;;4896654;29;20381;-76
2021/09/09 00:52:23;;;;;;;17.02;15.20;;;15.40;99.90;;;;;;4894891;29;20032;-80
2021/09/09 00:54:49;;;;;;;15.55;13.95;;;15.30;99.90;;;;;;4897127;29;20024;-75
2021/09/09 00:57:16;;;;;;;16.23;14.60;;;15.30;99.90;;;;;;4914256;29;20029;-75
2021/09/09 00:59:44;;;;;;;16.45;14.63;;;15.30;99.90;;;;;;4913534;29;20028;-76
2021/09/09 01:02:10;;;;;;;17.42;15.27;;;15.30;99.90;;;;;;4914097;29;20028;-75
2021/09/09 01:04:36;;;;;;;17.27;15.30;;;15.30;99.90;;;;;;4913634;29;20028;-76
2021/09/09 01:07:02;;;;;;;18.10;15.23;;;15.20;99.90;;;;;;4914687;29;20029;-76
2021/09/09 01:09:28;;;;;;;16.48;14.70;;;15.20;99.90;;;;;;4914118;29;20393;-75
2021/09/09 01:11:53;;;;;;;17.02;15.23;;;15.20;99.90;;;;;;4914125;29;20040;-74
2021/09/09 01:14:19;;;;;;;17.20;14.73;;;15.20;99.90;;;;;;4918023;29;20047;-75
2021/09/09 01:16:46;;;;;;;16.30;14.55;;;15.20;99.90;;;;;;4913820;29;20040;-76
2021/09/09 01:19:13;;;;;;;17.00;14.63;;;15.20;99.90;;;;;;4909961;29;20384;-75
2021/09/09 01:21:39;;;;;;;18.50;16.20;;;15.20;99.90;;;;;;4900360;29;20115;-75
2021/09/09 01:24:12;;;;;;;17.40;15.45;;;15.10;99.90;;;;;;4907874;29;20083;-75
2021/09/09 01:26:56;;;;;;;17.73;15.52;;;15.10;99.90;;;;;;4903298;29;20032;-76
2021/09/09 01:29:24;;;;;;;17.92;14.75;;;15.10;99.90;;;;;;4903169;29;20016;-75
2021/09/09 01:31:51;;;;;;;15.55;13.75;;;15.10;99.90;;;;;;4918653;29;20044;-77
2021/09/09 01:34:17;;;;;;;16.48;14.73;;;15.10;99.90;;;;;;4912129;29;20020;-76
2021/09/09 01:36:43;;;;;;;17.80;15.70;;;15.10;99.90;;;;;;4901062;29;20089;-76
2021/09/09 01:39:09;;;;;;;16.15;14.55;;;15.10;99.90;;;;;;4909285;29;20047;-76
2021/09/09 01:41:35;;;;;;;17.02;15.02;;;15.10;99.90;;;;;;4917145;29;20482;-79
2021/09/09 01:44:01;;;;;;;17.45;15.55;;;15.10;99.90;;;;;;4913118;29;20094;-76
2021/09/09 01:46:26;;;;;;;17.90;15.98;;;15.10;99.90;;;;;;4905354;29;20051;-75
2021/09/09 01:48:52;;;;;;;16.73;14.95;;;15.10;99.90;;;;;;4907856;29;20025;-79
2021/09/09 01:51:18;;;;;;;18.73;16.38;;;15.00;99.90;;;;;;4907364;29;20485;-77
2021/09/09 01:53:44;;;;;;;21.17;15.27;;;15.00;99.90;;;;;;4909769;29;20055;-78
2021/09/09 01:56:09;;;;;;;17.60;15.70;;;15.00;99.90;;;;;;4898516;29;20101;-77
2021/09/09 01:58:35;;;;;;;18.67;16.10;;;15.00;99.90;;;;;;4907349;29;20521;-77
2021/09/09 02:01:00;;;;;;;17.15;15.07;;;15.00;99.90;;;;;;4917778;29;20083;-79
2021/09/09 02:03:26;;;;;;;18.80;16.35;;;14.90;99.90;;;;;;4936327;29;20362;-83
2021/09/09 02:05:52;;;;;;;16.85;15.15;;;14.90;99.90;;;;;;4904738;29;20085;-76
2021/09/09 02:08:18;;;;;;;17.92;15.50;;;14.90;99.90;;;;;;4897770;29;20039;-86
2021/09/09 02:10:44;;;;;;;18.02;14.75;;;14.90;99.90;;;;;;4898123;29;20032;-77
2021/09/09 02:13:09;;;;;;;18.05;16.00;;;14.90;99.90;;;;;;4898167;29;20126;-77
2021/09/09 02:15:35;;;;;;;17.42;15.05;;;14.90;99.90;;;;;;4898851;29;20107;-77
2021/09/09 02:18:01;;;;;;;18.08;16.17;;;14.90;99.90;;;;;;4897659;29;20033;-77
2021/09/09 02:20:27;;;;;;;18.13;16.23;;;14.80;99.90;;;;;;4898118;29;20028;-80
2021/09/09 02:22:52;;;;;;;16.38;14.65;;;14.80;99.90;;;;;;4896866;29;20028;-77
2021/09/09 02:25:18;;;;;;;17.77;15.93;;;14.80;99.90;;;;;;4897319;29;20031;-77
2021/09/09 02:27:44;;;;;;;18.95;16.13;;;14.80;99.90;;;;;;4897378;29;20036;-76
2021/09/09 02:30:10;;;;;;;18.77;15.70;;;14.80;99.90;;;;;;4897200;29;20021;-78
2021/09/09 02:32:36;;;;;;;17.58;15.75;;;14.80;99.90;;;;;;4897791;29;20040;-85
2021/09/09 02:35:01;;;;;;;18.08;16.17;;;14.80;99.90;;;;;;4898812;29;20027;-77
2021/09/09 02:37:27;;;;;;;18.25;16.00;;;14.70;99.90;;;;;;4896754;29;20040;-76
2021/09/09 02:39:52;;;;;;;19.10;16.38;;;14.70;99.90;;;;;;4897912;29;20024;-79
2021/09/09 02:42:18;;;;;;;18.17;16.27;;;14.70;99.90;;;;;;4898292;29;20033;-76
2021/09/09 02:44:44;;;;;;;18.67;16.70;;;14.70;99.90;;;;;;4897399;29;20025;-75
2021/09/09 02:47:09;;;;;;;17.98;16.08;;;14.60;99.90;;;;;;4897444;29;20053;-79
2021/09/09 02:49:35;;;;;;;19.05;17.00;;;14.60;99.90;;;;;;4897660;29;20032;-76
2021/09/09 02:52:01;;;;;;;18.38;16.48;;;14.60;99.90;;;;;;4897575;29;20123;-77
2021/09/09 02:54:26;;;;;;;19.23;16.85;;;14.60;99.90;;;;;;4897150;29;20042;-76
2021/09/09 02:56:52;;;;;;;18.25;16.35;;;14.50;99.90;;;;;;4896487;29;20036;-76
2021/09/09 02:59:17;;;;;;;18.63;16.58;;;14.50;99.90;;;;;;4896705;29;20031;-77
2021/09/09 03:01:43;;;;;;;20.10;16.50;;;14.50;99.90;;;;;;4897027;29;20136;-77
2021/09/09 03:04:08;;;;;;;18.00;16.10;;;14.50;99.90;;;;;;4896475;29;20020;-76
2021/09/09 03:06:34;;;;;;;19.00;16.73;;;14.50;99.90;;;;;;4896753;29;20404;-76
2021/09/09 03:09:00;;;;;;;18.67;16.67;;;14.40;99.90;;;;;;4896617;29;20021;-76
2021/09/09 03:11:25;;;;;;;18.35;16.42;;;14.40;99.90;;;;;;4896598;29;20053;-76
2021/09/09 03:13:51;;;;;;;20.20;17.55;;;14.40;99.90;;;;;;4896672;29;20029;-76
2021/09/09 03:16:16;;;;;;;18.42;16.55;;;14.40;99.90;;;;;;4896902;29;20028;-76
2021/09/09 03:18:43;;;;;;;20.48;16.80;;;14.30;99.90;;;;;;4896092;29;20036;-75
2021/09/09 03:21:08;;;;;;;19.52;16.80;;;14.30;99.90;;;;;;4896698;29;20084;-75
2021/09/09 03:23:34;;;;;;;18.73;16.80;;;14.30;99.90;;;;;;4896912;29;20414;-76
2021/09/09 03:26:00;;;;;;;18.02;16.00;;;14.30;99.90;;;;;;4895805;29;20033;-76
2021/09/09 03:28:25;;;;;;;18.60;16.52;;;14.30;99.90;;;;;;4896547;29;20024;-75
2021/09/09 03:30:51;;;;;;;19.02;17.10;;;14.30;99.90;;;;;;4897809;29;20080;-80
2021/09/09 03:33:16;;;;;;;20.05;17.20;;;14.20;99.90;;;;;;4896081;29;20036;-76
2021/09/09 03:35:42;;;;;;;19.10;16.08;;;14.20;99.90;;;;;;4897657;29;20027;-77
2021/09/09 03:38:09;;;;;;;19.42;17.42;;;14.20;99.90;;;;;;4896462;29;20477;-76
2021/09/09 03:40:35;;;;;;;18.60;16.65;;;14.20;99.90;;;;;;4895879;29;20122;-76
2021/09/09 03:43:01;;;;;;;17.83;15.93;;;14.20;99.90;;;;;;4897490;29;20033;-76
2021/09/09 03:45:26;;;;;;;17.95;16.08;;;14.20;99.90;;;;;;4897700;29;20485;-76
2021/09/09 03:47:52;;;;;;;18.73;16.73;;;14.10;99.90;;;;;;4895328;29;20515;-77
2021/09/09 03:50:18;;;;;;;20.02;17.88;;;14.10;99.90;;;;;;4896279;29;20032;-77
2021/09/09 03:52:44;;;;;;;20.17;17.70;;;14.10;99.90;;;;;;4896024;29;20084;-78
2021/09/09 03:55:10;;;;;;;20.10;17.65;;;14.10;99.90;;;;;;4895545;29;20024;-76
2021/09/09 03:57:35;;;;;;;19.23;16.30;;;14.10;99.90;;;;;;4896160;29;20059;-82
2021/09/09 04:00:02;;;;;;;21.15;18.08;;;14.10;99.90;;;;;;4897209;29;20058;-76
2021/09/09 04:02:27;;;;;;;20.17;17.48;;;14.00;99.90;;;;;;4896752;29;20029;-79
2021/09/09 04:04:53;;;;;;;19.48;16.85;;;14.10;99.90;;;;;;4895970;29;20437;-76
2021/09/09 04:07:18;;;;;;;19.33;17.17;;;14.00;99.90;;;;;;4896061;29;20506;-77
2021/09/09 04:09:44;;;;;;;18.65;16.38;;;14.00;99.90;;;;;;4895400;29;20028;-76
2021/09/09 04:12:09;;;;;;;17.90;16.05;;;14.00;99.90;;;;;;4896793;29;20143;-76
2021/09/09 04:14:35;;;;;;;19.73;17.58;;;14.00;99.90;;;;;;4895388;29;20032;-78
2021/09/09 04:17:00;;;;;;;19.48;16.98;;;14.00;99.90;;;;;;4895410;29;20043;-76
2021/09/09 04:19:26;;;;;;;18.73;16.80;;;14.00;99.90;;;;;;4897019;29;20102;-76
2021/09/09 04:21:52;;;;;;;19.15;17.02;;;14.00;99.90;;;;;;4896493;29;20060;-80
2021/09/09 04:24:22;;;;;;;19.33;17.23;;;14.00;99.90;;;;;;4895882;29;20035;-77
2021/09/09 04:26:49;;;;;;;18.98;16.95;;;14.00;99.90;;;;;;4895476;29;20030;-77
2021/09/09 04:29:14;;;;;;;20.35;18.15;;;13.90;99.90;;;;;;4895534;29;20060;-76
2021/09/09 04:31:41;;;;;;;23.95;17.88;;;13.90;99.90;;;;;;4897559;29;20056;-76
2021/09/09 04:34:07;;;;;;;18.80;16.80;;;14.00;99.90;;;;;;4897088;29;20036;-79
2021/09/09 04:36:33;;;;;;;18.88;16.98;;;13.90;99.90;;;;;;4895139;29;20051;-78
2021/09/09 04:38:58;;;;;;;19.98;17.30;;;13.90;99.90;;;;;;4896632;29;20465;-77
2021/09/09 04:41:24;;;;;;;22.40;17.42;;;13.90;99.90;;;;;;4895349;29;20084;-78
2021/09/09 04:43:49;;;;;;;18.67;16.77;;;13.90;99.90;;;;;;4896362;29;20033;-77
2021/09/09 04:46:15;;;;;;;18.45;16.63;;;13.90;99.90;;;;;;4896189;29;20057;-76
2021/09/09 04:48:41;;;;;;;23.02;19.23;;;13.90;99.90;;;;;;4895175;29;20031;-76
2021/09/09 04:51:07;;;;;;;19.40;17.30;;;13.90;99.90;;;;;;4896099;29;20449;-79
2021/09/09 04:53:32;;;;;;;20.13;16.52;;;13.90;99.90;;;;;;4895681;29;20056;-76
2021/09/09 04:55:58;;;;;;;19.67;17.58;;;13.90;99.90;;;;;;4895058;29;20028;-76
2021/09/09 04:58:23;;;;;;;19.45;17.35;;;13.80;99.90;;;;;;4894786;29;20498;-77
2021/09/09 05:00:49;;;;;;;18.90;16.83;;;13.80;99.90;;;;;;4895727;29;20025;-83
2021/09/09 05:03:15;;;;;;;19.85;17.65;;;13.80;99.90;;;;;;4895315;29;20115;-77
2021/09/09 05:05:41;;;;;;;20.00;17.90;;;13.80;99.90;;;;;;4896939;29;20039;-76
2021/09/09 05:08:07;;;;;;;19.42;17.42;;;13.80;99.90;;;;;;4907922;29;20024;-76
2021/09/09 05:10:33;;;;;;;20.52;17.65;;;13.80;99.90;;;;;;4914137;29;20028;-76
2021/09/09 05:12:58;;;;;;;19.83;17.40;;;13.80;99.90;;;;;;4914877;29;20473;-78
2021/09/09 05:15:24;;;;;;;20.00;18.00;;;13.90;99.90;;;;;;4914266;29;20024;-76
2021/09/09 05:17:50;;;;;;;20.92;18.75;;;13.80;99.90;;;;;;4914399;29;20036;-75
2021/09/09 05:20:16;;;;;;;19.00;17.00;;;13.80;99.90;;;;;;4903289;29;20037;-76
2021/09/09 05:22:41;;;;;;;20.92;17.45;;;13.90;99.90;;;;;;4894955;29;20025;-76
2021/09/09 05:25:08;;;;;;;19.63;17.52;;;13.90;99.90;;;;;;4894276;29;20028;-77
2021/09/09 05:27:33;;;;;;;20.00;17.88;;;13.90;99.90;;;;;;4896514;29;20029;-77
2021/09/09 05:29:59;;;;;;;19.48;17.38;;;13.90;99.90;;;;;;4904920;29;20104;-76
2021/09/09 05:32:25;;;;;;;20.63;18.50;;;14.00;99.90;;;;;;4895887;29;20084;-76
2021/09/09 05:34:50;;;;;;;20.23;18.13;;;14.00;99.90;;;;;;4894987;29;20052;-76
2021/09/09 05:37:16;;;;;;;19.10;17.17;;;14.00;99.90;;;;;;4895074;29;20119;-77
2021/09/09 05:39:42;;;;;;;20.75;18.65;;;14.00;99.90;;;;;;4895590;29;20063;-84
2021/09/09 05:42:07;;;;;;;20.40;17.85;;;14.00;99.90;;;;;;4897804;29;20017;-79
2021/09/09 05:44:33;;;;;;;18.77;16.80;;;14.00;99.90;;;;;;4912073;29;20039;-76
2021/09/09 05:46:58;;;;;;;19.90;17.80;;;14.10;99.90;;;;;;4901317;29;20059;-73
2021/09/09 05:49:24;;;;;;;20.10;18.00;;;14.10;99.90;;;;;;4913861;29;20540;-74
2021/09/09 05:51:50;;;;;;;19.67;17.65;;;14.10;99.90;;;;;;4905256;29;20040;-75
2021/09/09 05:54:16;;;;;;;19.55;17.42;;;14.20;99.90;;;;;;4895747;29;20077;-77
2021/09/09 05:56:41;;;;;;;19.45;17.05;;;14.20;99.90;;;;;;4895186;29;20111;-77
2021/09/09 05:59:07;;;;;;;20.90;17.23;;;14.20;99.90;;;;;;4899613;29;20016;-77
2021/09/09 06:01:35;;;;;;;22.48;17.95;;;14.20;99.90;;;;;;4917787;29;20028;-78
2021/09/09 06:04:01;;;;;;;18.85;16.83;;;14.30;99.90;;;;;;4917814;29;20032;-77
2021/09/09 06:06:27;;;;;;;17.60;15.80;;;14.30;99.90;;;;;;4917465;29;20039;-77
2021/09/09 06:08:55;;;;;;;18.75;16.85;;;14.40;99.90;;;;;;4916193;29;20031;-75
2021/09/09 06:11:21;;;;;;;19.73;17.58;;;14.40;99.90;;;;;;4916947;29;20119;-75
2021/09/09 06:13:46;;;;;;;20.45;17.50;;;14.50;99.90;;;;;;4916800;29;20491;-76
2021/09/09 06:16:12;;;;;;;19.63;17.58;;;14.50;99.90;;;;;;4916309;29;20179;-77
2021/09/09 06:18:38;;;;;;;20.20;18.02;;;14.50;99.90;;;;;;4906659;29;20111;-76
2021/09/09 06:21:03;;;;;;;19.50;17.45;;;14.60;99.90;;;;;;4899353;29;20023;-77
2021/09/09 06:23:29;;;;;;;20.73;18.52;;;14.70;99.90;;;;;;4899350;29;20036;-77
2021/09/09 06:25:54;;;;;;;20.55;18.50;;;14.70;99.90;;;;;;4898679;29;20025;-77
2021/09/09 06:28:20;;;;;;;19.08;17.13;;;14.80;99.90;;;;;;4896778;29;20901;-77
2021/09/09 06:30:46;;;;;;;20.45;18.42;;;14.80;99.90;;;;;;4897318;29;20036;-76
2021/09/09 06:33:11;;;;;;;20.95;18.33;;;14.90;99.90;;;;;;4898780;29;20028;-79
2021/09/09 06:35:38;;;;;;;21.42;18.30;;;15.00;99.90;;;;;;4913708;29;20036;-76
2021/09/09 06:38:04;;;;;;;19.67;17.67;;;15.00;99.90;;;;;;4917258;29;20392;-75
2021/09/09 06:40:29;;;;;;;24.27;21.52;;;15.10;99.90;;;;;;4910087;29;20099;-76
2021/09/09 06:42:55;;;;;;;24.48;21.42;;;15.10;99.90;;;;;;4913684;29;20032;-77
2021/09/09 06:45:21;;;;;;;24.83;22.17;;;15.30;99.90;;;;;;4917081;29;20068;-76
2021/09/09 06:47:48;;;;;;;22.58;20.27;;;15.40;99.90;;;;;;4900622;29;20060;-76
2021/09/09 06:50:13;;;;;;;24.02;21.42;;;15.60;99.90;;;;;;4896119;29;20743;-78
2021/09/09 06:52:39;;;;;;;23.45;20.13;;;15.70;99.90;;;;;;4896504;29;20040;-72
2021/09/09 06:55:10;;;;;;;22.85;20.23;;;15.80;99.90;;;;;;4896980;29;20033;-83
2021/09/09 06:57:35;;;;;;;23.08;20.55;;;15.80;99.90;;;;;;4897934;29;20037;-71
2021/09/09 07:00:01;;;;;;;23.77;21.17;;;15.90;99.90;;;;;;4905541;29;20367;-71
2021/09/09 07:02:27;;;;;;;23.02;20.42;;;15.90;99.90;;;;;;4899384;29;20035;-70
2021/09/09 07:04:52;;;;;;;24.08;21.35;;;16.00;99.90;;;;;;4897572;29;20450;-71
2021/09/09 07:07:18;;;;;;;23.90;21.30;;;16.00;99.90;;;;;;4909152;29;20549;-70
2021/09/09 07:09:43;;;;;;;23.23;20.83;;;16.10;99.90;;;;;;4916388;29;20111;-70
2021/09/09 07:12:09;;;;;;;23.45;20.95;;;16.20;99.90;;;;;;4914983;29;20029;-71
2021/09/09 07:14:34;;;;;;;23.40;20.85;;;16.20;99.90;;;;;;4913022;29;20021;-74
2021/09/09 07:17:00;;;;;;;25.67;21.42;;;16.30;99.90;;;;;;4896247;29;20439;-74
2021/09/09 07:19:25;;;;;;;22.15;19.85;;;16.40;99.90;;;;;;4928045;29;20024;-79
2021/09/09 07:21:51;;;;;;;22.73;20.00;;;16.40;99.90;;;;;;4933780;29;20122;-74
2021/09/09 07:24:17;;;;;;;23.98;21.58;;;16.50;99.90;;;;;;4924386;29;20024;-75
2021/09/09 07:26:47;;;;;;;23.05;20.60;;;16.60;99.90;;;;;;4915868;29;20032;-77
2021/09/09 07:29:14;;;;;;;23.85;20.40;;;16.60;99.90;;;;;;4907166;29;20051;-74
2021/09/09 07:31:41;;;;;;;22.77;19.67;;;16.70;99.90;;;;;;4897097;29;20037;-80
2021/09/09 07:34:06;;;;;;;23.63;20.02;;;16.80;99.90;;;;;;4897755;29;20021;-75
2021/09/09 07:36:32;;;;;;;22.02;19.73;;;16.90;99.90;;;;;;4911748;29;20028;-80
2021/09/09 07:38:57;;;;;;;24.58;18.95;;;16.90;99.90;;;;;;4913140;29;20507;-75
2021/09/09 07:41:23;;;;;;;21.83;19.52;;;17.00;99.90;;;;;;4916385;29;20032;-71
2021/09/09 07:43:48;;;;;;;23.75;19.67;;;17.10;99.90;;;;;;4914347;29;20050;-78
2021/09/09 07:46:14;;;;;;;22.13;19.85;;;17.30;99.90;;;;;;4904391;29;20093;-78
2021/09/09 07:48:40;;;;;;;22.67;20.15;;;17.30;99.90;;;;;;4916739;29;20036;-74
2021/09/09 07:51:05;;;;;;;22.52;20.23;;;17.40;99.90;;;;;;4901716;29;20021;-73
2021/09/09 07:53:31;;;;;;;20.92;18.67;;;17.40;99.90;;;;;;4895127;29;20037;-76
2021/09/09 07:55:57;;;;;;;22.13;18.55;;;17.60;99.90;;;;;;4895581;29;20111;-81
2021/09/09 07:58:22;;;;;;;22.00;19.13;;;17.60;99.90;;;;;;4896737;29;20040;-76
2021/09/09 08:00:48;;;;;;;23.30;20.85;;;17.70;99.90;;;;;;4899318;29;20024;-77
2021/09/09 08:03:13;;;;;;;19.92;17.92;;;17.80;99.90;;;;;;4897647;29;20093;-75
2021/09/09 08:05:39;;;;;;;20.58;17.98;;;17.90;99.90;;;;;;4906495;29;20050;-74
2021/09/09 08:08:06;;;;;;;22.48;17.77;;;18.00;99.90;;;;;;4895051;29;20025;-77
2021/09/09 08:10:31;;;;;;;18.67;16.77;;;18.20;99.90;;;;;;4896390;29;20016;-70
2021/09/09 08:12:57;;;;;;;22.98;19.75;;;18.40;99.90;;;;;;4897864;29;20112;-75
2021/09/09 08:15:22;;;;;;;20.02;17.63;;;18.60;99.90;;;;;;4906540;29;20088;-72
2021/09/09 08:17:48;;;;;;;20.58;17.60;;;18.70;99.90;;;;;;4915357;29;20099;-75
2021/09/09 08:20:15;;;;;;;19.27;17.35;;;18.80;99.90;;;;;;4915931;29;20096;-72
2021/09/09 08:22:42;;;;;;;20.85;16.98;;;18.90;99.90;;;;;;4913804;29;20028;-72
2021/09/09 08:25:08;;;;;;;19.00;16.83;;;18.90;99.90;;;;;;4903663;29;20064;-72
2021/09/09 08:27:34;;;;;;;18.00;16.17;;;18.90;99.90;;;;;;4896883;29;20024;-70
2021/09/09 08:30:00;;;;;;;20.30;18.15;;;18.90;99.90;;;;;;4895985;29;20043;-70
2021/09/09 08:32:26;;;;;;;20.15;16.15;;;18.90;99.90;;;;;;4896350;29;20493;-70
2021/09/09 08:34:56;;;;;;;17.98;16.17;;;19.00;99.90;;;;;;4899635;29;20031;-72
2021/09/09 08:37:22;;;;;;;18.77;15.98;;;19.00;99.90;;;;;;4913663;29;20489;-69
2021/09/09 08:39:48;;;;;;;17.85;16.05;;;19.00;99.90;;;;;;4914678;29;20059;-75
2021/09/09 08:42:14;;;;;;;17.15;14.88;;;19.10;99.90;;;;;;4912008;29;20074;-81
2021/09/09 08:44:41;;;;;;;20.75;15.55;;;19.20;99.90;;;;;;4914616;29;20058;-75
2021/09/09 08:47:08;;;;;;;19.52;15.30;;;19.30;99.90;;;;;;4907027;29;20052;-75
2021/09/09 08:49:34;;;;;;;16.95;15.10;;;19.30;99.90;;;;;;4894993;29;20025;-78
2021/09/09 08:52:03;;;;;;;16.25;14.55;;;19.40;99.90;;;;;;4895475;29;20680;-71
2021/09/09 08:54:29;;;;;;;15.63;13.82;;;19.50;99.90;;;;;;4895301;29;20028;-70
2021/09/09 08:56:54;;;;;;;18.58;13.85;;;19.50;99.90;;;;;;4894360;29;20028;-72
2021/09/09 08:59:20;;;;;;;15.52;13.85;;;19.60;99.90;;;;;;4896446;29;20036;-70
2021/09/09 09:02:04;;;;;;;16.10;14.50;;;19.70;99.90;;;;;;4895785;29;20410;-72
2021/09/09 09:04:30;;;;;;;17.33;12.73;;;19.80;99.90;;;;;;4895688;29;20028;-72
2021/09/09 09:06:56;;;;;;;14.55;13.05;;;19.90;99.90;;;;;;4895354;29;20443;-73
2021/09/09 09:09:24;;;;;;;14.20;12.32;;;20.00;99.90;;;;;;4896097;29;20058;-72
2021/09/09 09:11:51;;;;;;;14.38;12.88;;;20.00;99.90;;;;;;4922225;29;20036;-72
2021/09/09 09:14:19;;;;;;;14.27;12.55;;;20.20;99.90;;;;;;4931099;29;20492;-74
2021/09/09 09:16:48;;;;;;;14.00;12.13;;;20.40;99.90;;;;;;4899670;29;20063;-76
2021/09/09 09:19:16;;;;;;;16.52;13.00;;;20.70;99.90;;;;;;4913040;29;20115;-74
2021/09/09 09:21:46;;;;;;;13.48;12.10;;;21.00;99.90;;;;;;4913096;29;20119;-76
2021/09/09 09:24:16;;;;;;;13.95;11.75;;;21.20;99.90;;;;;;4896599;29;20138;-70
2021/09/09 09:27:03;;;;;;;14.25;11.95;;;21.40;99.90;;;;;;4897509;29;20025;-71
2021/09/09 09:29:29;;;;;;;14.05;12.60;;;21.50;99.90;;;;;;4896554;29;20020;-80
2021/09/09 09:32:16;;;;;;;13.32;11.90;;;21.50;99.90;;;;;;4895489;29;20043;-74
2021/09/09 09:34:44;;;;;;;12.98;11.32;;;21.60;99.90;;;;;;4899894;29;20374;-73
2021/09/09 09:37:10;;;;;;;12.73;11.38;;;21.80;99.90;;;;;;4899727;29;20032;-73
2021/09/09 09:39:36;;;;;;;12.25;10.48;;;22.00;99.90;;;;;;4899147;29;20036;-72
2021/09/09 09:42:06;;;;;;;11.95;10.63;;;22.20;99.90;;;;;;4898409;29;20024;-73
2021/09/09 09:44:33;;;;;;;15.13;12.27;;;22.50;99.90;;;;;;4898676;29;20047;-74
2021/09/09 09:47:19;;;;;;;12.35;10.45;;;22.80;99.90;;;;;;4897249;29;20052;-73
2021/09/09 09:49:49;;;;;;;15.05;10.27;;;23.10;99.90;;;;;;4898382;29;20148;-73
2021/09/09 09:52:26;;;;;;;13.05;11.15;;;23.20;99.90;;;;;;4897784;29;20511;-74
2021/09/09 09:55:03;;;;;;;16.17;10.73;;;23.30;99.90;;;;;;4899537;29;20025;-73
2021/09/09 09:57:29;;;;;;;11.30;10.20;;;23.30;99.90;;;;;;4898876;29;20516;-73
2021/09/09 09:59:56;;;;;;;13.43;10.52;;;23.40;99.90;;;;;;4898881;29;20109;-73
2021/09/09 10:02:23;;;;;;;12.68;10.25;;;23.60;99.90;;;;;;4899198;29;20024;-76
2021/09/09 10:04:51;;;;;;;11.63;9.65;;;23.80;99.90;;;;;;4898479;29;20056;-74
2021/09/09 10:07:17;;;;;;;11.80;10.60;;;24.00;99.90;;;;;;4898605;29;20043;-73
2021/09/09 10:09:44;;;;;;;11.07;9.10;;;24.10;99.90;;;;;;4898214;29;20025;-77
2021/09/09 10:12:11;;;;;;;10.13;9.05;;;24.30;99.90;;;;;;4899232;29;20085;-74
2021/09/09 10:14:46;;;;;;;9.85;8.82;;;24.50;99.90;;;;;;4898730;29;20482;-73
2021/09/09 10:17:12;;;;;;;12.05;10.20;;;24.60;99.90;;;;;;4899219;29;20037;-73
2021/09/09 10:19:38;;;;;;;19.52;11.07;;;24.60;99.90;;;;;;4897660;29;20024;-79
2021/09/09 10:22:15;;;;;;;10.48;9.45;;;24.60;99.90;;;;;;4897123;29;20033;-74
2021/09/09 10:24:45;;;;;;;10.27;9.13;;;24.40;99.90;;;;;;4899166;29;20063;-73
2021/09/09 10:27:23;;;;;;;10.82;9.40;;;24.20;99.90;;;;;;4898282;29;20032;-73
2021/09/09 10:30:02;;;;;;;11.07;9.98;;;24.00;99.90;;;;;;4897839;29;20505;-74
2021/09/09 10:32:45;;;;;;;12.60;9.85;;;23.90;99.90;;;;;;4897694;29;20083;-73
2021/09/09 10:35:18;;;;;;;15.25;11.10;;;23.90;99.90;;;;;;4897388;29;20088;-74
2021/09/09 10:37:44;;;;;;;11.63;10.52;;;23.80;99.90;;;;;;4897576;29;20040;-79
2021/09/09 10:40:29;;;;;;;14.43;11.10;;;23.80;99.90;;;;;;4897794;29;20043;-74
2021/09/09 10:42:56;;;;;;;13.73;10.52;;;23.90;99.90;;;;;;4896618;29;20084;-73
2021/09/09 10:45:34;;;;;;;12.63;10.25;;;24.10;99.90;;;;;;4897796;29;20496;-73
2021/09/09 10:48:04;;;;;;;11.77;9.35;;;24.30;99.90;;;;;;4897212;29;20546;-73
2021/09/09 10:50:30;;;;;;;10.85;8.40;;;24.40;99.90;;;;;;4897497;29;20017;-77
2021/09/09 10:53:00;;;;;;;9.88;8.88;;;24.50;99.90;;;;;;4897046;29;20087;-74
2021/09/09 10:55:31;;;;;;;11.52;9.27;;;24.50;99.90;;;;;;4896521;29;20398;-74
2021/09/09 10:58:24;;;;;;;9.60;8.60;;;24.40;99.90;;;;;;4897202;29;20063;-73
2021/09/09 11:00:50;;;;;;;13.57;10.85;;;24.40;99.90;;;;;;4898314;29;20053;-74
2021/09/09 11:03:43;;;;;;;14.07;11.35;;;24.40;99.90;;;;;;4897751;29;20025;-73
2021/09/09 11:06:15;;;;;;;15.00;11.38;;;24.40;99.90;;;;;;4898188;29;20390;-77
2021/09/09 11:08:53;;;;;;;12.05;10.75;;;24.40;99.90;;;;;;4896936;29;20053;-74
2021/09/09 11:11:27;;;;;;;11.80;10.45;;;24.40;99.90;;;;;;4896280;29;20033;-73
2021/09/09 11:14:01;;;;;;;13.18;10.05;;;24.40;99.90;;;;;;4898050;29;20083;-74
2021/09/09 11:16:31;;;;;;;12.10;9.30;;;24.40;99.90;;;;;;4897429;29;20037;-74
2021/09/09 11:18:57;;;;;;;10.75;9.65;;;24.40;99.90;;;;;;4896966;29;20534;-75
2021/09/09 11:21:35;;;;;;;11.38;10.13;;;24.30;99.90;;;;;;4896807;29;20028;-74
2021/09/09 11:24:09;;;;;;;11.93;10.65;;;24.20;99.90;;;;;;4895955;29;20394;-78
2021/09/09 11:26:36;;;;;;;11.77;10.50;;;24.30;99.90;;;;;;4896946;29;20393;-80
2021/09/09 11:29:03;;;;;;;10.35;9.27;;;24.30;99.90;;;;;;4896438;29;20029;-74
2021/09/09 11:31:30;;;;;;;11.07;9.73;;;24.40;99.90;;;;;;4897202;29;20044;-79
2021/09/09 11:34:05;;;;;;;11.80;10.27;;;24.40;99.90;;;;;;4896704;29;20024;-74
2021/09/09 11:36:37;;;;;;;11.43;10.27;;;24.40;99.90;;;;;;4898123;29;20084;-79
2021/09/09 11:39:12;;;;;;;12.45;10.50;;;24.50;99.90;;;;;;4895867;29;20016;-85
2021/09/09 11:41:39;;;;;;;12.85;10.23;;;24.60;99.90;;;;;;4896651;29;20052;-75
2021/09/09 11:44:12;;;;;;;11.95;10.13;;;24.70;99.90;;;;;;4896401;29;20055;-81
2021/09/09 11:46:42;;;;;;;12.18;9.13;;;24.70;99.90;;;;;;4895634;29;20049;-75
2021/09/09 11:49:09;;;;;;;12.73;10.00;;;24.80;99.90;;;;;;4896375;29;20020;-76
2021/09/09 11:51:35;;;;;;;11.65;10.32;;;24.80;99.90;;;;;;4896987;29;20055;-78
2021/09/09 11:54:02;;;;;;;13.55;10.38;;;25.10;99.90;;;;;;4895890;29;20517;-76
2021/09/09 11:56:27;;;;;;;16.88;11.23;;;25.30;99.90;;;;;;4897334;29;20482;-74
2021/09/09 11:58:53;;;;;;;13.07;11.80;;;25.50;99.90;;;;;;4896524;29;20071;-76
2021/09/09 12:01:19;;;;;;;13.00;11.65;;;25.60;99.90;;;;;;4896002;29;20025;-74
2021/09/09 12:03:45;;;;;;;14.32;12.93;;;25.80;99.90;;;;;;4897048;29;20486;-73
2021/09/09 12:06:12;;;;;;;13.07;11.68;;;26.10;99.90;;;;;;4896484;29;20029;-77
2021/09/09 12:08:43;;;;;;;16.05;12.48;;;26.20;99.90;;;;;;4897405;29;20032;-73
2021/09/09 12:11:11;;;;;;;19.63;14.50;;;26.50;99.90;;;;;;4895824;29;20040;-74
2021/09/09 12:13:39;;;;;;;13.77;12.20;;;26.60;99.90;;;;;;4896712;29;20032;-74
2021/09/09 12:16:32;;;;;;;14.05;12.60;;;26.70;99.90;;;;;;4896621;29;20461;-74
2021/09/09 12:19:03;;;;;;;15.32;13.65;;;26.90;99.90;;;;;;4895488;29;20020;-74
2021/09/09 12:21:29;;;;;;;14.70;13.23;;;27.20;99.90;;;;;;4895418;29;20035;-74
2021/09/09 12:24:09;;;;;;;16.20;13.65;;;27.30;99.90;;;;;;4896830;29;20024;-74
2021/09/09 12:26:37;;;;;;;15.13;13.30;;;27.60;99.90;;;;;;4896009;29;20501;-77
2021/09/09 12:29:14;;;;;;;19.92;15.88;;;27.80;99.90;;;;;;4894890;29;20261;-74